createdAt,value
2023-05-14T00:00:25.117Z,13.17
2023-05-14T00:02:52.287Z,13.18
2023-05-14T00:05:19.199Z,13.16
2023-05-14T00:07:45.997Z,13.15
2023-05-14T00:10:12.914Z,13.13
2023-05-14T00:12:39.747Z,13.12
2023-05-14T00:15:07.290Z,13.13
2023-05-14T00:17:34.211Z,13.11
2023-05-14T00:20:01.330Z,13.10
2023-05-14T00:22:28.165Z,13.11
2023-05-14T00:24:55.040Z,13.10
2023-05-14T00:27:21.839Z,13.08
2023-05-14T00:29:48.663Z,13.08
2023-05-14T00:32:15.734Z,13.06
2023-05-14T00:34:42.671Z,13.08
2023-05-14T00:37:09.475Z,13.07
2023-05-14T00:39:36.436Z,13.07
2023-05-14T00:42:03.337Z,13.06
2023-05-14T00:44:30.197Z,13.07
2023-05-14T00:46:57.220Z,13.07
2023-05-14T00:49:24.566Z,13.06
2023-05-14T00:51:51.568Z,13.06
2023-05-14T00:54:19.768Z,13.05
2023-05-14T00:56:47.529Z,13.05
2023-05-14T00:59:14.402Z,13.04
2023-05-14T01:01:41.319Z,13.04
2023-05-14T01:04:10.576Z,13.03
2023-05-14T01:06:55.628Z,13.02
2023-05-14T01:09:29.764Z,13.01
2023-05-14T01:12:00.388Z,13.01
2023-05-14T01:14:44.708Z,12.99
2023-05-14T01:17:13.477Z,12.99
2023-05-14T01:19:42.950Z,12.98
2023-05-14T01:22:11.016Z,12.97
2023-05-14T01:24:38.058Z,12.95
2023-05-14T01:27:35.733Z,12.95
2023-05-14T01:30:05.514Z,12.94
2023-05-14T01:32:33.750Z,12.94
2023-05-14T01:35:01.848Z,12.93
2023-05-14T01:37:30.205Z,12.94
2023-05-14T01:39:57.771Z,12.92
2023-05-14T01:42:26.032Z,12.92
2023-05-14T01:44:53.128Z,12.93
2023-05-14T01:47:19.915Z,12.91
2023-05-14T01:49:46.767Z,12.93
2023-05-14T01:52:13.872Z,12.90
2023-05-14T01:54:40.719Z,12.89
2023-05-14T01:57:07.613Z,12.88
2023-05-14T01:59:34.395Z,12.86
2023-05-14T02:02:01.195Z,12.84
2023-05-14T02:04:28.104Z,12.85
2023-05-14T02:06:55.007Z,12.85
2023-05-14T02:09:21.907Z,12.84
2023-05-14T02:11:55.818Z,12.85
2023-05-14T02:14:22.675Z,12.84
2023-05-14T02:16:51.082Z,12.83
2023-05-14T02:19:20.450Z,12.81
2023-05-14T02:21:48.121Z,12.81
2023-05-14T02:24:14.956Z,12.82
2023-05-14T02:26:42.250Z,12.81
2023-05-14T02:29:09.138Z,12.81
2023-05-14T02:31:36.022Z,12.80
2023-05-14T02:34:04.388Z,12.79
2023-05-14T02:36:31.891Z,12.81
2023-05-14T02:38:59.903Z,12.78
2023-05-14T02:41:27.542Z,12.78
2023-05-14T02:43:54.925Z,12.77
2023-05-14T02:46:21.953Z,12.77
2023-05-14T02:48:48.831Z,12.74
2023-05-14T02:51:16.463Z,12.75
2023-05-14T02:53:43.379Z,12.76
2023-05-14T02:56:10.162Z,12.75
2023-05-14T02:58:37.053Z,12.73
2023-05-14T03:01:04.168Z,12.71
2023-05-14T03:03:31.956Z,12.71
2023-05-14T03:05:59.328Z,12.70
2023-05-14T03:08:26.189Z,12.69
2023-05-14T03:10:53.083Z,12.69
2023-05-14T03:13:20.857Z,12.67
2023-05-14T03:15:48.568Z,12.67
2023-05-14T03:18:15.564Z,12.65
2023-05-14T03:20:42.423Z,12.64
2023-05-14T03:23:09.342Z,12.64
2023-05-14T03:25:36.285Z,12.64
2023-05-14T03:28:04.134Z,12.63
2023-05-14T03:30:30.985Z,12.62
2023-05-14T03:32:58.091Z,12.60
2023-05-14T03:35:24.964Z,12.60
2023-05-14T03:37:53.113Z,12.60
2023-05-14T03:40:20.047Z,12.59
2023-05-14T03:42:46.873Z,12.59
2023-05-14T03:45:13.674Z,12.59
2023-05-14T03:47:40.605Z,12.58
2023-05-14T03:50:08.600Z,12.57
2023-05-14T03:52:35.650Z,12.57
2023-05-14T03:55:02.671Z,12.57
2023-05-14T03:57:29.472Z,12.56
2023-05-14T03:59:56.411Z,12.57
2023-05-14T04:02:23.573Z,12.56
2023-05-14T04:04:50.434Z,12.55
2023-05-14T04:07:17.319Z,12.55
2023-05-14T04:09:44.166Z,12.56
2023-05-14T04:12:11.049Z,12.55
2023-05-14T04:14:37.872Z,12.56
2023-05-14T04:17:04.808Z,12.57
2023-05-14T04:19:31.933Z,12.56
2023-05-14T04:21:58.829Z,12.56
2023-05-14T04:24:25.701Z,12.55
2023-05-14T04:26:52.482Z,12.56
2023-05-14T04:29:19.295Z,12.54
2023-05-14T04:31:46.532Z,12.56
2023-05-14T04:34:13.359Z,12.54
2023-05-14T04:36:40.318Z,12.52
2023-05-14T04:39:09.336Z,12.54
2023-05-14T04:41:36.823Z,12.54
2023-05-14T04:44:04.046Z,12.54
2023-05-14T04:46:31.244Z,12.53
2023-05-14T04:48:58.054Z,12.54
2023-05-14T04:51:24.874Z,12.53
2023-05-14T04:53:51.651Z,12.51
2023-05-14T04:56:18.414Z,12.51
2023-05-14T04:58:45.197Z,12.51
2023-05-14T05:01:12.299Z,12.50
2023-05-14T05:03:39.226Z,12.50
2023-05-14T05:06:06.261Z,12.49
2023-05-14T05:08:33.017Z,12.49
2023-05-14T05:10:59.774Z,12.49
2023-05-14T05:13:26.631Z,12.47
2023-05-14T05:15:53.442Z,12.48
2023-05-14T05:18:20.298Z,12.49
2023-05-14T05:20:47.227Z,12.48
2023-05-14T05:23:14.131Z,12.47
2023-05-14T05:25:41.288Z,12.47
2023-05-14T05:28:08.140Z,12.46
2023-05-14T05:30:35.135Z,12.47
2023-05-14T05:33:02.093Z,12.46
2023-05-14T05:35:29.446Z,12.47
2023-05-14T05:37:59.219Z,12.46
2023-05-14T05:40:28.165Z,12.46
2023-05-14T05:42:55.200Z,12.46
2023-05-14T05:45:22.099Z,12.46
2023-05-14T05:47:48.985Z,12.46
2023-05-14T05:50:16.000Z,12.45
2023-05-14T05:52:43.123Z,12.45
2023-05-14T05:55:10.168Z,12.45
2023-05-14T05:57:36.996Z,12.44
2023-05-14T06:00:13.092Z,12.46
2023-05-14T06:02:41.458Z,12.45
2023-05-14T06:05:09.718Z,12.46
2023-05-14T06:07:37.038Z,12.46
2023-05-14T06:10:05.052Z,12.47
2023-05-14T06:12:31.962Z,12.45
2023-05-14T06:14:58.860Z,12.46
2023-05-14T06:17:26.022Z,12.47
2023-05-14T06:19:53.398Z,12.47
2023-05-14T06:22:20.472Z,12.48
2023-05-14T06:24:48.068Z,12.47
2023-05-14T06:27:14.960Z,12.48
2023-05-14T06:29:41.810Z,12.49
2023-05-14T06:32:09.176Z,12.48
2023-05-14T06:34:36.101Z,12.48
2023-05-14T06:37:04.256Z,12.50
2023-05-14T06:39:31.212Z,12.49
2023-05-14T06:41:58.049Z,12.48
2023-05-14T06:44:24.900Z,12.51
2023-05-14T06:46:52.174Z,12.48
2023-05-14T06:49:19.271Z,12.49
2023-05-14T06:51:46.142Z,12.48
2023-05-14T06:54:13.254Z,12.48
2023-05-14T06:56:40.190Z,12.51
2023-05-14T06:59:07.125Z,12.50
2023-05-14T07:01:34.056Z,12.50
2023-05-14T07:04:01.019Z,12.50
2023-05-14T07:06:27.968Z,12.51
2023-05-14T07:08:54.817Z,12.52
2023-05-14T07:11:22.330Z,12.53
2023-05-14T07:13:49.200Z,12.53
2023-05-14T07:16:16.070Z,12.53
2023-05-14T07:18:43.874Z,12.52
2023-05-14T07:21:10.877Z,12.52
2023-05-14T07:23:38.497Z,12.52
2023-05-14T07:26:06.264Z,12.54
2023-05-14T07:28:33.620Z,12.54
2023-05-14T07:31:00.677Z,12.54
2023-05-14T07:33:27.642Z,12.55
2023-05-14T07:35:54.503Z,12.56
2023-05-14T07:38:21.613Z,12.56
2023-05-14T07:40:48.474Z,12.56
2023-05-14T07:43:15.339Z,12.55
2023-05-14T07:45:42.271Z,12.56
2023-05-14T07:48:09.273Z,12.56
2023-05-14T07:50:37.238Z,12.56
2023-05-14T07:53:04.171Z,12.57
2023-05-14T07:55:31.510Z,12.56
2023-05-14T07:57:58.253Z,12.58
2023-05-14T08:00:25.374Z,12.59
2023-05-14T08:02:52.774Z,12.58
2023-05-14T08:05:19.997Z,12.58
2023-05-14T08:07:46.908Z,12.58
2023-05-14T08:10:13.833Z,12.59
2023-05-14T08:12:40.791Z,12.59
2023-05-14T08:15:08.288Z,12.58
2023-05-14T08:17:35.375Z,12.58
2023-05-14T08:20:03.205Z,12.59
2023-05-14T08:22:30.118Z,12.57
2023-05-14T08:24:57.024Z,12.58
2023-05-14T08:27:23.901Z,12.57
2023-05-14T08:29:51.553Z,12.56
2023-05-14T08:32:23.453Z,12.56
2023-05-14T08:34:51.933Z,12.54
2023-05-14T08:37:19.026Z,12.53
2023-05-14T08:39:46.078Z,12.52
2023-05-14T08:42:13.875Z,12.51
2023-05-14T08:44:55.813Z,12.52
2023-05-14T08:47:23.968Z,12.53
2023-05-14T08:50:04.594Z,12.53
2023-05-14T08:52:31.960Z,12.52
2023-05-14T08:55:04.703Z,12.51
2023-05-14T08:57:33.027Z,12.51
2023-05-14T09:00:00.717Z,12.51
2023-05-14T09:02:31.757Z,12.51
2023-05-14T09:05:00.531Z,12.50
2023-05-14T09:07:27.976Z,12.51
2023-05-14T09:09:55.474Z,12.50
2023-05-14T09:12:22.888Z,12.51
2023-05-14T09:14:50.822Z,12.53
2023-05-14T09:17:18.994Z,12.53
2023-05-14T09:19:53.033Z,12.53
2023-05-14T09:22:20.941Z,12.52
2023-05-14T09:25:02.846Z,12.51
2023-05-14T09:27:31.807Z,12.49
2023-05-14T09:30:09.305Z,12.50
2023-05-14T09:32:40.728Z,12.48
2023-05-14T09:35:12.693Z,12.50
2023-05-14T09:37:42.675Z,12.50
2023-05-14T09:40:10.967Z,12.51
2023-05-14T09:42:38.272Z,12.52
2023-05-14T09:45:06.945Z,12.55
2023-05-14T09:47:33.958Z,12.55
2023-05-14T09:50:01.065Z,12.57
2023-05-14T09:52:28.003Z,12.59
2023-05-14T09:54:55.147Z,12.62
2023-05-14T09:57:22.056Z,12.63
2023-05-14T09:59:48.950Z,12.62
2023-05-14T10:02:26.971Z,12.64
2023-05-14T10:04:54.897Z,12.64
2023-05-14T10:07:29.752Z,12.65
2023-05-14T10:10:02.098Z,12.66
2023-05-14T10:12:34.472Z,12.66
2023-05-14T10:15:07.020Z,12.66
2023-05-14T10:17:37.502Z,12.67
2023-05-14T10:20:09.048Z,12.67
2023-05-14T10:22:36.164Z,12.69
2023-05-14T10:25:04.459Z,12.68
2023-05-14T10:27:32.103Z,12.68
2023-05-14T10:29:58.994Z,12.69
2023-05-14T10:32:26.589Z,12.69
2023-05-14T10:34:54.104Z,12.69
2023-05-14T10:37:26.553Z,12.70
2023-05-14T10:40:02.294Z,12.70
2023-05-14T10:42:35.462Z,12.70
2023-05-14T10:45:07.459Z,12.71
2023-05-14T10:47:36.336Z,12.71
2023-05-14T10:50:06.165Z,12.71
2023-05-14T10:52:35.112Z,12.72
2023-05-14T10:55:07.846Z,12.72
2023-05-14T10:57:36.799Z,12.73
2023-05-14T11:00:07.363Z,12.72
2023-05-14T11:02:39.856Z,12.73
2023-05-14T11:05:14.400Z,12.73
2023-05-14T11:07:42.189Z,12.74
2023-05-14T11:10:10.264Z,12.74
2023-05-14T11:12:42.604Z,12.75
2023-05-14T11:15:11.330Z,12.76
2023-05-14T11:17:40.531Z,12.77
2023-05-14T11:20:08.930Z,12.78
2023-05-14T11:22:37.067Z,12.77
2023-05-14T11:25:04.766Z,12.78
2023-05-14T11:27:36.230Z,12.78
2023-05-14T11:30:04.073Z,12.79
2023-05-14T11:32:34.204Z,12.79
2023-05-14T11:35:01.104Z,12.81
2023-05-14T11:37:27.971Z,12.78
2023-05-14T11:39:56.623Z,12.80
2023-05-14T11:42:23.961Z,12.80
2023-05-14T11:44:52.317Z,12.79
2023-05-14T11:47:21.467Z,12.81
2023-05-14T11:49:49.691Z,12.82
2023-05-14T11:52:19.631Z,12.85
2023-05-14T11:54:46.928Z,12.85
2023-05-14T11:57:19.656Z,12.86
2023-05-14T11:59:47.892Z,12.87
2023-05-14T12:02:17.662Z,12.87
2023-05-14T12:04:49.716Z,12.87
2023-05-14T12:07:16.773Z,12.88
2023-05-14T12:09:49.895Z,12.90
2023-05-14T12:12:21.106Z,12.89
2023-05-14T12:14:49.706Z,12.89
2023-05-14T12:17:18.614Z,12.90
2023-05-14T12:19:48.037Z,12.89
2023-05-14T12:22:18.552Z,12.90
2023-05-14T12:24:59.340Z,12.89
2023-05-14T12:27:27.452Z,12.88
2023-05-14T12:30:16.819Z,12.88
2023-05-14T12:32:46.848Z,12.88
2023-05-14T12:35:13.716Z,12.88
2023-05-14T12:37:40.792Z,12.88
2023-05-14T12:40:11.590Z,12.88
2023-05-14T12:42:38.532Z,12.90
2023-05-14T12:45:08.110Z,12.89
2023-05-14T12:47:36.445Z,12.88
2023-05-14T12:50:03.763Z,12.89
2023-05-14T12:52:37.912Z,12.88
2023-05-14T12:55:08.190Z,12.88
2023-05-14T12:57:35.774Z,12.88
2023-05-14T13:00:07.054Z,12.88
2023-05-14T13:02:42.873Z,12.89
2023-05-14T13:05:11.833Z,12.90
2023-05-14T13:07:39.004Z,12.89
2023-05-14T13:10:06.798Z,12.90
2023-05-14T13:12:33.808Z,12.91
2023-05-14T13:15:00.690Z,12.91
2023-05-14T13:17:27.662Z,12.91
2023-05-14T13:19:54.479Z,12.92
2023-05-14T13:22:21.529Z,12.93
2023-05-14T13:24:48.407Z,12.94
2023-05-14T13:27:15.329Z,12.95
2023-05-14T13:29:42.377Z,12.95
2023-05-14T13:32:09.197Z,12.95
2023-05-14T13:34:36.364Z,12.96
2023-05-14T13:37:04.053Z,12.97
2023-05-14T13:39:30.972Z,12.97
2023-05-14T13:41:57.981Z,12.97
2023-05-14T13:44:24.867Z,12.98
2023-05-14T13:46:51.945Z,12.98
2023-05-14T13:49:18.854Z,12.98
2023-05-14T13:51:45.865Z,12.98
2023-05-14T13:54:12.669Z,12.99
2023-05-14T13:56:39.460Z,12.99
2023-05-14T13:59:06.418Z,13.01
2023-05-14T14:01:33.445Z,13.00
2023-05-14T14:04:00.473Z,12.99
2023-05-14T14:06:30.050Z,13.00
2023-05-14T14:08:56.910Z,13.00
2023-05-14T14:11:23.703Z,13.01
2023-05-14T14:13:50.678Z,13.02
2023-05-14T14:16:17.551Z,13.02
2023-05-14T14:18:44.790Z,13.02
2023-05-14T14:21:12.055Z,13.03
2023-05-14T14:23:38.828Z,13.03
2023-05-14T14:26:05.655Z,13.04
2023-05-14T14:28:32.550Z,13.04
2023-05-14T14:30:59.372Z,13.03
2023-05-14T14:33:27.174Z,13.03
2023-05-14T14:35:54.121Z,13.04
2023-05-14T14:38:21.105Z,13.03
2023-05-14T14:40:48.067Z,13.03
2023-05-14T14:43:14.879Z,13.04
2023-05-14T14:45:42.949Z,13.04
2023-05-14T14:48:39.928Z,13.04
2023-05-14T14:51:08.197Z,13.04
2023-05-14T14:53:36.257Z,13.03
2023-05-14T14:56:03.505Z,13.02
2023-05-14T14:58:31.207Z,13.03
2023-05-14T15:00:58.643Z,13.03
2023-05-14T15:03:26.210Z,13.03
2023-05-14T15:05:53.910Z,13.03
2023-05-14T15:08:24.819Z,13.04
2023-05-14T15:10:51.698Z,13.03
2023-05-14T15:13:19.121Z,13.01
2023-05-14T15:15:45.993Z,13.01
2023-05-14T15:18:12.929Z,13.01
2023-05-14T15:20:40.014Z,13.02
2023-05-14T15:23:07.266Z,13.02
2023-05-14T15:25:34.119Z,13.02
2023-05-14T15:28:00.909Z,13.00
2023-05-14T15:30:27.934Z,13.01
2023-05-14T15:32:55.796Z,13.01
2023-05-14T15:35:23.020Z,13.02
2023-05-14T15:37:49.961Z,13.01
2023-05-14T15:40:16.771Z,13.00
2023-05-14T15:42:43.902Z,13.00
2023-05-14T15:45:12.522Z,13.00
2023-05-14T15:47:40.039Z,13.00
2023-05-14T15:50:07.789Z,12.99
2023-05-14T15:52:36.339Z,12.97
2023-05-14T15:55:04.490Z,12.98
2023-05-14T15:57:31.753Z,12.97
2023-05-14T15:59:58.518Z,12.98
2023-05-14T16:02:25.840Z,12.96
2023-05-14T16:04:52.652Z,12.99
2023-05-14T16:07:19.442Z,12.96
2023-05-14T16:09:46.301Z,12.96
2023-05-14T16:12:13.078Z,12.95
2023-05-14T16:14:41.997Z,12.95
2023-05-14T16:17:09.346Z,12.96
2023-05-14T16:19:36.121Z,12.94
2023-05-14T16:22:02.930Z,12.95
2023-05-14T16:24:29.804Z,12.95
2023-05-14T16:26:56.816Z,12.94
2023-05-14T16:29:23.605Z,12.95
2023-05-14T16:31:50.423Z,12.95
2023-05-14T16:34:17.280Z,12.95
2023-05-14T16:36:44.200Z,12.94
2023-05-14T16:39:11.605Z,12.95
2023-05-14T16:41:38.439Z,12.94
2023-05-14T16:44:05.266Z,12.94
2023-05-14T16:46:32.433Z,12.93
2023-05-14T16:48:59.392Z,12.91
2023-05-14T16:51:26.257Z,12.93
2023-05-14T16:53:54.638Z,12.92
2023-05-14T16:56:22.980Z,12.91
2023-05-14T16:58:50.019Z,12.92
2023-05-14T17:01:17.069Z,12.91
2023-05-14T17:03:45.774Z,12.91
2023-05-14T17:06:12.672Z,12.90
2023-05-14T17:08:39.478Z,12.91
2023-05-14T17:11:06.521Z,12.90
2023-05-14T17:13:34.098Z,12.91
2023-05-14T17:16:01.242Z,12.90
2023-05-14T17:18:28.603Z,12.90
2023-05-14T17:20:55.732Z,12.91
2023-05-14T17:23:22.638Z,12.90
2023-05-14T17:25:49.632Z,12.90
2023-05-14T17:28:16.435Z,12.90
2023-05-14T17:30:43.886Z,12.91
2023-05-14T17:33:11.757Z,12.90
2023-05-14T17:35:39.073Z,12.91
2023-05-14T17:38:05.905Z,12.92
2023-05-14T17:40:33.528Z,12.89
2023-05-14T17:43:01.001Z,12.89
2023-05-14T17:45:30.631Z,12.87
2023-05-14T17:48:01.111Z,12.88
2023-05-14T17:50:28.152Z,12.88
2023-05-14T17:52:56.764Z,12.87
2023-05-14T17:55:24.298Z,12.86
2023-05-14T17:57:51.357Z,12.87
2023-05-14T18:00:18.303Z,12.87
2023-05-14T18:02:45.235Z,12.87
2023-05-14T18:05:12.456Z,12.86
2023-05-14T18:07:40.184Z,12.86
2023-05-14T18:10:08.510Z,12.86
2023-05-14T18:12:36.233Z,12.85
2023-05-14T18:15:04.669Z,12.85
2023-05-14T18:17:32.056Z,12.85
2023-05-14T18:20:00.278Z,12.85
2023-05-14T18:22:28.042Z,12.84
2023-05-14T18:24:55.768Z,12.85
2023-05-14T18:27:24.122Z,12.85
2023-05-14T18:29:52.418Z,12.85
2023-05-14T18:32:21.561Z,12.85
2023-05-14T18:34:49.609Z,12.85
2023-05-14T18:37:17.484Z,12.84
2023-05-14T18:39:45.586Z,12.84
2023-05-14T18:42:13.945Z,12.85
2023-05-14T18:44:44.360Z,12.85
2023-05-14T18:47:12.964Z,12.84
2023-05-14T18:49:42.326Z,12.84
2023-05-14T18:52:11.329Z,12.84
2023-05-14T18:54:39.881Z,12.84
2023-05-14T18:57:08.915Z,12.84
2023-05-14T18:59:37.347Z,12.83
2023-05-14T19:02:05.721Z,12.83
2023-05-14T19:04:44.305Z,12.84
2023-05-14T19:07:19.790Z,12.84
2023-05-14T19:09:49.370Z,12.84
2023-05-14T19:12:17.637Z,12.83
2023-05-14T19:14:45.731Z,12.82
2023-05-14T19:17:14.061Z,12.83
2023-05-14T19:19:42.102Z,12.83
2023-05-14T19:22:11.517Z,12.84
2023-05-14T19:24:41.143Z,12.83
2023-05-14T19:27:09.419Z,12.83
2023-05-14T19:29:37.191Z,12.82
2023-05-14T19:32:06.004Z,12.82
2023-05-14T19:34:34.000Z,12.82
2023-05-14T19:37:01.835Z,12.82
2023-05-14T19:39:29.936Z,12.82
2023-05-14T19:41:57.715Z,12.81
2023-05-14T19:44:25.913Z,12.81
2023-05-14T19:46:54.051Z,12.82
2023-05-14T19:49:21.630Z,12.79
2023-05-14T19:51:49.350Z,12.79
2023-05-14T19:54:16.885Z,12.80
2023-05-14T19:56:44.662Z,12.77
2023-05-14T19:59:13.212Z,12.79
2023-05-14T20:01:41.582Z,12.79
2023-05-14T20:04:10.200Z,12.81
2023-05-14T20:06:38.604Z,12.78
2023-05-14T20:09:06.002Z,12.78
2023-05-14T20:11:33.153Z,12.78
2023-05-14T20:14:00.132Z,12.77
2023-05-14T20:16:28.759Z,12.78
2023-05-14T20:18:56.270Z,12.79
2023-05-14T20:21:23.390Z,12.79
2023-05-14T20:23:50.330Z,12.78
2023-05-14T20:26:17.375Z,12.78
2023-05-14T20:28:44.231Z,12.77
2023-05-14T20:31:11.279Z,12.78
2023-05-14T20:33:38.307Z,12.78
2023-05-14T20:36:05.390Z,12.78
2023-05-14T20:38:34.890Z,12.80
2023-05-14T20:41:01.842Z,12.80
2023-05-14T20:43:28.739Z,12.78
2023-05-14T20:45:57.612Z,12.80
2023-05-14T20:48:24.580Z,12.81
2023-05-14T20:50:51.446Z,12.79
2023-05-14T20:53:18.447Z,12.79
2023-05-14T20:55:45.405Z,12.80
2023-05-14T20:58:12.325Z,12.78
2023-05-14T21:00:39.391Z,12.79
2023-05-14T21:03:06.444Z,12.78
2023-05-14T21:05:33.598Z,12.78
2023-05-14T21:08:00.493Z,12.78
2023-05-14T21:10:27.462Z,12.78
2023-05-14T21:12:54.660Z,12.78
2023-05-14T21:15:21.656Z,12.77
2023-05-14T21:17:48.607Z,12.77
2023-05-14T21:20:15.740Z,12.78
2023-05-14T21:22:42.566Z,12.79
2023-05-14T21:25:10.131Z,12.79
2023-05-14T21:27:37.321Z,12.78
2023-05-14T21:30:04.543Z,12.79
2023-05-14T21:32:31.424Z,12.78
2023-05-14T21:34:58.340Z,12.79
2023-05-14T21:37:25.171Z,12.78
2023-05-14T21:39:51.997Z,12.77
2023-05-14T21:42:21.000Z,12.77
2023-05-14T21:44:47.901Z,12.79
2023-05-14T21:47:15.807Z,12.79
2023-05-14T21:49:43.130Z,12.78
2023-05-14T21:52:09.902Z,12.79
2023-05-14T21:54:36.687Z,12.78
2023-05-14T21:57:04.782Z,12.77
2023-05-14T21:59:31.556Z,12.78
2023-05-14T22:04:28.310Z,12.78
2023-05-14T22:06:55.083Z,12.79
2023-05-14T22:09:21.944Z,12.79
2023-05-14T22:11:48.777Z,12.79
2023-05-14T22:14:15.637Z,12.79
2023-05-14T22:16:42.564Z,12.79
2023-05-14T22:19:09.584Z,12.79
2023-05-14T22:21:36.711Z,12.78
2023-05-14T22:24:03.705Z,12.79
2023-05-14T22:26:30.610Z,12.79
2023-05-14T22:28:57.775Z,12.78
2023-05-14T22:31:25.023Z,12.77
2023-05-14T22:33:52.180Z,12.77
2023-05-14T22:36:18.981Z,12.78
2023-05-14T22:38:45.809Z,12.78
2023-05-14T22:41:12.700Z,12.78
2023-05-14T22:43:39.554Z,12.77
2023-05-14T22:46:06.841Z,12.76
2023-05-14T22:48:33.766Z,12.77
2023-05-14T22:51:00.550Z,12.77
2023-05-14T22:53:27.427Z,12.75
2023-05-14T22:55:54.677Z,12.77
2023-05-14T22:58:21.584Z,12.75
2023-05-14T23:00:48.459Z,12.75
2023-05-14T23:03:15.411Z,12.76
2023-05-14T23:05:42.308Z,12.75
2023-05-14T23:08:09.262Z,12.75
2023-05-14T23:10:36.139Z,12.74
2023-05-14T23:13:04.156Z,12.75
2023-05-14T23:15:31.344Z,12.75
2023-05-14T23:17:58.546Z,12.75
2023-05-14T23:20:25.578Z,12.76
2023-05-14T23:22:54.158Z,12.75
2023-05-14T23:25:21.047Z,12.76
2023-05-14T23:27:48.272Z,12.74
2023-05-14T23:30:15.283Z,12.76
2023-05-14T23:32:42.210Z,12.76
2023-05-14T23:35:09.624Z,12.76
2023-05-14T23:37:41.779Z,12.76
2023-05-14T23:40:09.717Z,12.77
2023-05-14T23:42:36.586Z,12.76
2023-05-14T23:45:03.694Z,12.76
2023-05-14T23:47:30.670Z,12.74
2023-05-14T23:49:57.576Z,12.75
2023-05-14T23:52:24.474Z,12.74
2023-05-14T23:54:51.319Z,12.74
2023-05-14T23:57:18.295Z,12.75
2023-05-14T23:59:45.107Z,12.75
